sensor_id;sensor_type;location;lat;lon;timestamp;P1;durP1;ratioP1;P2;durP2;ratioP2
10847;SDS011;5477;48.806;9.154;2022-10-16T00:00:57;3.83;;;2.00;;
10847;SDS011;5477;48.806;9.154;2022-10-16T00:03:25;2.17;;;1.43;;
10847;SDS011;5477;48.806;9.154;2022-10-16T00:05:58;2.73;;;1.70;;
10847;SDS011;5477;48.806;9.154;2022-10-16T00:08:27;4.90;;;1.60;;
10847;SDS011;5477;48.806;9.154;2022-10-16T00:11:00;6.80;;;1.50;;
10847;SDS011;5477;48.806;9.154;2022-10-16T00:13:29;5.33;;;1.73;;
10847;SDS011;5477;48.806;9.154;2022-10-16T00:15:58;10.10;;;1.43;;
10847;SDS011;5477;48.806;9.154;2022-10-16T00:18:28;7.23;;;1.70;;
10847;SDS011;5477;48.806;9.154;2022-10-16T00:21:01;5.33;;;1.50;;
10847;SDS011;5477;48.806;9.154;2022-10-16T00:23:30;4.57;;;1.47;;
10847;SDS011;5477;48.806;9.154;2022-10-16T00:26:00;3.87;;;1.50;;
10847;SDS011;5477;48.806;9.154;2022-10-16T00:28:28;4.83;;;1.40;;
10847;SDS011;5477;48.806;9.154;2022-10-16T00:30:57;2.97;;;1.23;;
10847;SDS011;5477;48.806;9.154;2022-10-16T00:33:25;5.50;;;1.40;;
10847;SDS011;5477;48.806;9.154;2022-10-16T00:35:53;2.87;;;1.50;;
10847;SDS011;5477;48.806;9.154;2022-10-16T00:38:21;5.47;;;1.67;;
10847;SDS011;5477;48.806;9.154;2022-10-16T00:40:49;3.63;;;1.60;;
10847;SDS011;5477;48.806;9.154;2022-10-16T00:46:14;4.30;;;1.50;;
10847;SDS011;5477;48.806;9.154;2022-10-16T00:48:45;5.03;;;2.13;;
10847;SDS011;5477;48.806;9.154;2022-10-16T00:51:17;2.50;;;1.60;;
10847;SDS011;5477;48.806;9.154;2022-10-16T00:53:49;5.90;;;1.30;;
10847;SDS011;5477;48.806;9.154;2022-10-16T00:56:17;6.87;;;1.57;;
10847;SDS011;5477;48.806;9.154;2022-10-16T00:58:45;7.53;;;1.50;;
10847;SDS011;5477;48.806;9.154;2022-10-16T01:01:14;6.23;;;1.57;;
10847;SDS011;5477;48.806;9.154;2022-10-16T01:03:43;1.73;;;1.30;;
10847;SDS011;5477;48.806;9.154;2022-10-16T01:06:24;5.57;;;1.70;;
10847;SDS011;5477;48.806;9.154;2022-10-16T01:09:07;4.77;;;1.50;;
10847;SDS011;5477;48.806;9.154;2022-10-16T01:11:41;4.27;;;1.43;;
10847;SDS011;5477;48.806;9.154;2022-10-16T01:14:19;2.73;;;1.50;;
10847;SDS011;5477;48.806;9.154;2022-10-16T01:16:55;1.87;;;1.30;;
10847;SDS011;5477;48.806;9.154;2022-10-16T01:19:36;3.30;;;1.20;;
10847;SDS011;5477;48.806;9.154;2022-10-16T01:22:14;9.17;;;1.60;;
10847;SDS011;5477;48.806;9.154;2022-10-16T01:24:44;2.43;;;1.30;;
10847;SDS011;5477;48.806;9.154;2022-10-16T01:27:17;4.93;;;1.47;;
10847;SDS011;5477;48.806;9.154;2022-10-16T01:29:52;2.30;;;1.20;;
10847;SDS011;5477;48.806;9.154;2022-10-16T01:32:27;2.60;;;1.40;;
10847;SDS011;5477;48.806;9.154;2022-10-16T01:34:59;5.87;;;1.43;;
10847;SDS011;5477;48.806;9.154;2022-10-16T01:37:32;6.83;;;1.60;;
10847;SDS011;5477;48.806;9.154;2022-10-16T01:40:06;3.07;;;1.40;;
10847;SDS011;5477;48.806;9.154;2022-10-16T01:42:39;4.20;;;1.50;;
10847;SDS011;5477;48.806;9.154;2022-10-16T01:45:10;4.83;;;1.30;;
10847;SDS011;5477;48.806;9.154;2022-10-16T01:47:41;3.37;;;1.50;;
10847;SDS011;5477;48.806;9.154;2022-10-16T01:50:10;2.57;;;1.73;;
10847;SDS011;5477;48.806;9.154;2022-10-16T01:52:43;3.60;;;1.50;;
10847;SDS011;5477;48.806;9.154;2022-10-16T01:55:14;3.03;;;1.40;;
10847;SDS011;5477;48.806;9.154;2022-10-16T01:57:46;2.00;;;1.50;;
10847;SDS011;5477;48.806;9.154;2022-10-16T02:00:17;4.63;;;1.50;;
10847;SDS011;5477;48.806;9.154;2022-10-16T02:02:49;4.13;;;1.97;;
10847;SDS011;5477;48.806;9.154;2022-10-16T02:05:22;5.43;;;1.50;;
10847;SDS011;5477;48.806;9.154;2022-10-16T02:07:54;4.23;;;1.67;;
10847;SDS011;5477;48.806;9.154;2022-10-16T02:10:25;3.40;;;1.60;;
10847;SDS011;5477;48.806;9.154;2022-10-16T02:12:59;5.00;;;2.00;;
10847;SDS011;5477;48.806;9.154;2022-10-16T02:15:32;2.97;;;1.53;;
10847;SDS011;5477;48.806;9.154;2022-10-16T02:17:59;6.00;;;1.47;;
10847;SDS011;5477;48.806;9.154;2022-10-16T02:20:29;3.70;;;1.63;;
10847;SDS011;5477;48.806;9.154;2022-10-16T02:23:01;3.03;;;2.07;;
10847;SDS011;5477;48.806;9.154;2022-10-16T02:25:32;5.23;;;1.47;;
10847;SDS011;5477;48.806;9.154;2022-10-16T02:28:06;5.30;;;1.80;;
10847;SDS011;5477;48.806;9.154;2022-10-16T02:30:39;5.10;;;1.50;;
10847;SDS011;5477;48.806;9.154;2022-10-16T02:33:11;3.63;;;1.47;;
10847;SDS011;5477;48.806;9.154;2022-10-16T02:35:41;5.07;;;1.33;;
10847;SDS011;5477;48.806;9.154;2022-10-16T02:38:12;4.67;;;1.60;;
10847;SDS011;5477;48.806;9.154;2022-10-16T02:40:41;3.10;;;1.40;;
10847;SDS011;5477;48.806;9.154;2022-10-16T02:43:10;3.00;;;1.40;;
10847;SDS011;5477;48.806;9.154;2022-10-16T02:45:39;5.60;;;1.67;;
10847;SDS011;5477;48.806;9.154;2022-10-16T02:48:07;2.57;;;1.33;;
10847;SDS011;5477;48.806;9.154;2022-10-16T02:50:35;4.40;;;1.50;;
10847;SDS011;5477;48.806;9.154;2022-10-16T02:53:03;4.10;;;1.30;;
10847;SDS011;5477;48.806;9.154;2022-10-16T02:55:31;5.87;;;1.73;;
10847;SDS011;5477;48.806;9.154;2022-10-16T02:57:59;8.00;;;1.40;;
10847;SDS011;5477;48.806;9.154;2022-10-16T03:00:28;3.67;;;1.70;;
10847;SDS011;5477;48.806;9.154;2022-10-16T03:02:56;5.73;;;1.70;;
10847;SDS011;5477;48.806;9.154;2022-10-16T03:05:24;3.43;;;1.43;;
10847;SDS011;5477;48.806;9.154;2022-10-16T03:07:51;4.07;;;1.60;;
10847;SDS011;5477;48.806;9.154;2022-10-16T03:10:19;3.40;;;1.77;;
10847;SDS011;5477;48.806;9.154;2022-10-16T03:12:47;4.53;;;2.10;;
10847;SDS011;5477;48.806;9.154;2022-10-16T03:15:15;6.33;;;1.73;;
10847;SDS011;5477;48.806;9.154;2022-10-16T03:17:44;4.60;;;1.93;;
10847;SDS011;5477;48.806;9.154;2022-10-16T03:20:12;4.03;;;1.87;;
10847;SDS011;5477;48.806;9.154;2022-10-16T03:22:40;3.33;;;1.53;;
10847;SDS011;5477;48.806;9.154;2022-10-16T03:25:08;5.00;;;1.80;;
10847;SDS011;5477;48.806;9.154;2022-10-16T03:27:36;2.60;;;1.70;;
10847;SDS011;5477;48.806;9.154;2022-10-16T03:30:05;5.20;;;2.40;;
10847;SDS011;5477;48.806;9.154;2022-10-16T03:32:33;2.83;;;1.70;;
10847;SDS011;5477;48.806;9.154;2022-10-16T03:35:08;5.60;;;1.70;;
10847;SDS011;5477;48.806;9.154;2022-10-16T03:37:36;3.67;;;1.63;;
10847;SDS011;5477;48.806;9.154;2022-10-16T03:40:04;4.83;;;1.73;;
10847;SDS011;5477;48.806;9.154;2022-10-16T03:42:33;3.07;;;2.03;;
10847;SDS011;5477;48.806;9.154;2022-10-16T03:45:01;3.83;;;1.90;;
10847;SDS011;5477;48.806;9.154;2022-10-16T03:47:29;4.43;;;1.87;;
10847;SDS011;5477;48.806;9.154;2022-10-16T03:49:59;6.20;;;1.60;;
10847;SDS011;5477;48.806;9.154;2022-10-16T03:52:28;2.43;;;1.90;;
10847;SDS011;5477;48.806;9.154;2022-10-16T03:54:56;5.50;;;1.60;;
10847;SDS011;5477;48.806;9.154;2022-10-16T03:57:24;3.57;;;1.50;;
10847;SDS011;5477;48.806;9.154;2022-10-16T03:59:52;3.33;;;1.70;;
10847;SDS011;5477;48.806;9.154;2022-10-16T04:02:20;2.43;;;1.50;;
10847;SDS011;5477;48.806;9.154;2022-10-16T04:04:48;3.80;;;1.57;;
10847;SDS011;5477;48.806;9.154;2022-10-16T04:07:16;2.73;;;1.80;;
10847;SDS011;5477;48.806;9.154;2022-10-16T04:09:45;2.80;;;1.90;;
10847;SDS011;5477;48.806;9.154;2022-10-16T04:12:13;3.53;;;1.70;;
10847;SDS011;5477;48.806;9.154;2022-10-16T04:14:41;3.67;;;1.60;;
10847;SDS011;5477;48.806;9.154;2022-10-16T04:17:09;2.63;;;1.50;;
10847;SDS011;5477;48.806;9.154;2022-10-16T04:19:37;3.30;;;1.70;;
10847;SDS011;5477;48.806;9.154;2022-10-16T04:22:05;1.67;;;1.40;;
10847;SDS011;5477;48.806;9.154;2022-10-16T04:24:33;2.53;;;1.80;;
10847;SDS011;5477;48.806;9.154;2022-10-16T04:27:02;2.87;;;1.60;;
10847;SDS011;5477;48.806;9.154;2022-10-16T04:29:30;3.27;;;2.20;;
10847;SDS011;5477;48.806;9.154;2022-10-16T04:31:58;3.47;;;2.00;;
10847;SDS011;5477;48.806;9.154;2022-10-16T04:34:26;4.60;;;1.80;;
10847;SDS011;5477;48.806;9.154;2022-10-16T04:36:53;1.77;;;1.50;;
10847;SDS011;5477;48.806;9.154;2022-10-16T04:39:21;9.27;;;1.90;;
10847;SDS011;5477;48.806;9.154;2022-10-16T04:41:49;4.10;;;1.70;;
10847;SDS011;5477;48.806;9.154;2022-10-16T04:44:18;4.80;;;2.03;;
10847;SDS011;5477;48.806;9.154;2022-10-16T04:46:47;3.70;;;1.83;;
10847;SDS011;5477;48.806;9.154;2022-10-16T04:49:17;8.60;;;4.90;;
10847;SDS011;5477;48.806;9.154;2022-10-16T04:51:45;4.00;;;2.30;;
10847;SDS011;5477;48.806;9.154;2022-10-16T04:54:13;3.83;;;1.90;;
10847;SDS011;5477;48.806;9.154;2022-10-16T04:56:41;3.80;;;1.97;;
10847;SDS011;5477;48.806;9.154;2022-10-16T04:59:13;2.70;;;1.60;;
10847;SDS011;5477;48.806;9.154;2022-10-16T05:01:43;2.30;;;1.63;;
10847;SDS011;5477;48.806;9.154;2022-10-16T05:04:11;2.30;;;1.80;;
10847;SDS011;5477;48.806;9.154;2022-10-16T05:06:41;5.53;;;2.20;;
10847;SDS011;5477;48.806;9.154;2022-10-16T05:09:09;3.87;;;1.80;;
10847;SDS011;5477;48.806;9.154;2022-10-16T05:11:37;3.83;;;1.80;;
10847;SDS011;5477;48.806;9.154;2022-10-16T05:14:05;4.53;;;1.97;;
10847;SDS011;5477;48.806;9.154;2022-10-16T05:16:33;3.17;;;1.80;;
10847;SDS011;5477;48.806;9.154;2022-10-16T05:19:02;4.00;;;1.80;;
10847;SDS011;5477;48.806;9.154;2022-10-16T05:21:50;2.97;;;2.00;;
10847;SDS011;5477;48.806;9.154;2022-10-16T05:24:18;5.93;;;2.23;;
10847;SDS011;5477;48.806;9.154;2022-10-16T05:26:46;4.90;;;1.90;;
10847;SDS011;5477;48.806;9.154;2022-10-16T05:29:14;4.03;;;1.80;;
10847;SDS011;5477;48.806;9.154;2022-10-16T05:31:42;4.40;;;1.90;;
10847;SDS011;5477;48.806;9.154;2022-10-16T05:34:11;2.17;;;1.77;;
10847;SDS011;5477;48.806;9.154;2022-10-16T05:36:39;5.03;;;1.57;;
10847;SDS011;5477;48.806;9.154;2022-10-16T05:39:07;2.43;;;1.70;;
10847;SDS011;5477;48.806;9.154;2022-10-16T05:41:35;5.90;;;2.20;;
10847;SDS011;5477;48.806;9.154;2022-10-16T05:44:03;5.93;;;2.03;;
10847;SDS011;5477;48.806;9.154;2022-10-16T05:46:32;3.53;;;2.00;;
10847;SDS011;5477;48.806;9.154;2022-10-16T05:49:00;3.57;;;2.10;;
10847;SDS011;5477;48.806;9.154;2022-10-16T05:51:30;4.90;;;2.00;;
10847;SDS011;5477;48.806;9.154;2022-10-16T05:53:57;2.60;;;1.83;;
10847;SDS011;5477;48.806;9.154;2022-10-16T05:56:25;5.80;;;1.97;;
10847;SDS011;5477;48.806;9.154;2022-10-16T05:58:53;2.67;;;2.03;;
10847;SDS011;5477;48.806;9.154;2022-10-16T06:01:21;6.43;;;2.20;;
10847;SDS011;5477;48.806;9.154;2022-10-16T06:03:50;2.97;;;2.00;;
10847;SDS011;5477;48.806;9.154;2022-10-16T06:06:19;5.67;;;2.40;;
10847;SDS011;5477;48.806;9.154;2022-10-16T06:08:49;4.23;;;2.97;;
10847;SDS011;5477;48.806;9.154;2022-10-16T06:11:18;3.90;;;2.27;;
10847;SDS011;5477;48.806;9.154;2022-10-16T06:13:49;3.00;;;2.03;;
10847;SDS011;5477;48.806;9.154;2022-10-16T06:16:17;4.40;;;2.10;;
10847;SDS011;5477;48.806;9.154;2022-10-16T06:18:45;2.50;;;2.00;;
10847;SDS011;5477;48.806;9.154;2022-10-16T06:21:14;2.60;;;1.80;;
10847;SDS011;5477;48.806;9.154;2022-10-16T06:23:44;5.13;;;1.90;;
10847;SDS011;5477;48.806;9.154;2022-10-16T06:26:16;4.83;;;2.03;;
10847;SDS011;5477;48.806;9.154;2022-10-16T06:28:45;4.17;;;1.87;;
10847;SDS011;5477;48.806;9.154;2022-10-16T06:31:15;4.73;;;1.80;;
10847;SDS011;5477;48.806;9.154;2022-10-16T06:33:43;2.93;;;1.80;;
10847;SDS011;5477;48.806;9.154;2022-10-16T06:36:15;5.50;;;1.57;;
10847;SDS011;5477;48.806;9.154;2022-10-16T06:38:44;3.87;;;1.77;;
10847;SDS011;5477;48.806;9.154;2022-10-16T06:41:13;3.90;;;1.80;;
10847;SDS011;5477;48.806;9.154;2022-10-16T06:43:43;5.20;;;2.07;;
10847;SDS011;5477;48.806;9.154;2022-10-16T06:46:13;5.40;;;2.17;;
10847;SDS011;5477;48.806;9.154;2022-10-16T06:48:42;4.60;;;2.30;;
10847;SDS011;5477;48.806;9.154;2022-10-16T06:51:10;5.57;;;2.50;;
10847;SDS011;5477;48.806;9.154;2022-10-16T06:53:40;4.57;;;2.20;;
10847;SDS011;5477;48.806;9.154;2022-10-16T06:56:29;8.67;;;2.57;;
10847;SDS011;5477;48.806;9.154;2022-10-16T06:58:59;8.83;;;2.40;;
10847;SDS011;5477;48.806;9.154;2022-10-16T07:01:27;4.83;;;2.53;;
10847;SDS011;5477;48.806;9.154;2022-10-16T07:03:55;8.33;;;2.67;;
10847;SDS011;5477;48.806;9.154;2022-10-16T07:06:24;3.60;;;2.57;;
10847;SDS011;5477;48.806;9.154;2022-10-16T07:08:53;5.00;;;3.43;;
10847;SDS011;5477;48.806;9.154;2022-10-16T07:11:22;7.27;;;3.40;;
10847;SDS011;5477;48.806;9.154;2022-10-16T07:13:52;13.73;;;6.80;;
10847;SDS011;5477;48.806;9.154;2022-10-16T07:16:22;10.47;;;6.70;;
10847;SDS011;5477;48.806;9.154;2022-10-16T07:18:53;10.63;;;4.10;;
10847;SDS011;5477;48.806;9.154;2022-10-16T07:21:25;6.47;;;3.90;;
10847;SDS011;5477;48.806;9.154;2022-10-16T07:23:56;7.83;;;3.80;;
10847;SDS011;5477;48.806;9.154;2022-10-16T07:26:25;6.70;;;3.67;;
10847;SDS011;5477;48.806;9.154;2022-10-16T07:28:56;7.13;;;3.43;;
10847;SDS011;5477;48.806;9.154;2022-10-16T07:31:26;7.13;;;3.47;;
10847;SDS011;5477;48.806;9.154;2022-10-16T07:33:54;5.40;;;3.50;;
10847;SDS011;5477;48.806;9.154;2022-10-16T07:36:25;5.90;;;3.30;;
10847;SDS011;5477;48.806;9.154;2022-10-16T07:38:53;7.40;;;3.57;;
10847;SDS011;5477;48.806;9.154;2022-10-16T07:41:25;4.77;;;3.27;;
10847;SDS011;5477;48.806;9.154;2022-10-16T07:43:54;4.07;;;3.00;;
10847;SDS011;5477;48.806;9.154;2022-10-16T07:46:27;3.50;;;2.50;;
10847;SDS011;5477;48.806;9.154;2022-10-16T07:48:56;5.73;;;2.37;;
10847;SDS011;5477;48.806;9.154;2022-10-16T07:51:25;6.47;;;2.80;;
10847;SDS011;5477;48.806;9.154;2022-10-16T07:53:54;6.27;;;3.00;;
10847;SDS011;5477;48.806;9.154;2022-10-16T07:56:22;3.23;;;2.70;;
10847;SDS011;5477;48.806;9.154;2022-10-16T07:58:50;6.43;;;2.57;;
10847;SDS011;5477;48.806;9.154;2022-10-16T08:01:18;3.07;;;2.20;;
10847;SDS011;5477;48.806;9.154;2022-10-16T08:03:49;6.73;;;3.00;;
10847;SDS011;5477;48.806;9.154;2022-10-16T08:06:18;6.40;;;2.87;;
10847;SDS011;5477;48.806;9.154;2022-10-16T08:08:53;5.70;;;2.53;;
10847;SDS011;5477;48.806;9.154;2022-10-16T08:11:21;2.47;;;2.17;;
10847;SDS011;5477;48.806;9.154;2022-10-16T08:13:49;5.87;;;2.30;;
10847;SDS011;5477;48.806;9.154;2022-10-16T08:16:17;6.57;;;2.17;;
10847;SDS011;5477;48.806;9.154;2022-10-16T08:18:45;3.53;;;2.17;;
10847;SDS011;5477;48.806;9.154;2022-10-16T08:21:15;5.77;;;2.50;;
10847;SDS011;5477;48.806;9.154;2022-10-16T08:23:47;4.13;;;2.20;;
10847;SDS011;5477;48.806;9.154;2022-10-16T08:26:22;4.03;;;2.23;;
10847;SDS011;5477;48.806;9.154;2022-10-16T08:28:50;6.07;;;2.47;;
10847;SDS011;5477;48.806;9.154;2022-10-16T08:31:19;4.93;;;3.30;;
10847;SDS011;5477;48.806;9.154;2022-10-16T08:33:48;7.97;;;4.57;;
10847;SDS011;5477;48.806;9.154;2022-10-16T08:36:17;7.30;;;3.50;;
10847;SDS011;5477;48.806;9.154;2022-10-16T08:38:47;5.80;;;2.90;;
10847;SDS011;5477;48.806;9.154;2022-10-16T08:47:24;4.23;;;1.80;;
10847;SDS011;5477;48.806;9.154;2022-10-16T08:49:58;2.50;;;1.80;;
10847;SDS011;5477;48.806;9.154;2022-10-16T08:52:32;3.33;;;2.07;;
10847;SDS011;5477;48.806;9.154;2022-10-16T08:55:03;3.43;;;2.10;;
10847;SDS011;5477;48.806;9.154;2022-10-16T08:57:31;5.70;;;2.00;;
10847;SDS011;5477;48.806;9.154;2022-10-16T09:00:00;6.63;;;2.50;;
10847;SDS011;5477;48.806;9.154;2022-10-16T09:02:37;1.50;;;1.30;;
10847;SDS011;5477;48.806;9.154;2022-10-16T09:05:18;1.97;;;1.50;;
10847;SDS011;5477;48.806;9.154;2022-10-16T09:08:00;3.00;;;1.83;;
10847;SDS011;5477;48.806;9.154;2022-10-16T09:10:41;1.67;;;1.37;;
10847;SDS011;5477;48.806;9.154;2022-10-16T09:13:17;3.43;;;1.30;;
10847;SDS011;5477;48.806;9.154;2022-10-16T09:15:53;3.80;;;1.50;;
10847;SDS011;5477;48.806;9.154;2022-10-16T09:18:29;2.57;;;1.50;;
10847;SDS011;5477;48.806;9.154;2022-10-16T09:21:06;5.70;;;1.23;;
10847;SDS011;5477;48.806;9.154;2022-10-16T09:23:41;5.37;;;1.20;;
10847;SDS011;5477;48.806;9.154;2022-10-16T09:26:11;3.83;;;1.50;;
10847;SDS011;5477;48.806;9.154;2022-10-16T09:28:41;4.43;;;1.10;;
10847;SDS011;5477;48.806;9.154;2022-10-16T09:31:12;6.17;;;1.77;;
10847;SDS011;5477;48.806;9.154;2022-10-16T09:33:43;3.13;;;1.60;;
10847;SDS011;5477;48.806;9.154;2022-10-16T09:36:15;4.07;;;1.73;;
10847;SDS011;5477;48.806;9.154;2022-10-16T09:38:45;3.83;;;1.20;;
10847;SDS011;5477;48.806;9.154;2022-10-16T09:41:14;3.97;;;1.50;;
10847;SDS011;5477;48.806;9.154;2022-10-16T09:43:48;2.50;;;1.40;;
10847;SDS011;5477;48.806;9.154;2022-10-16T09:46:27;4.00;;;1.57;;
10847;SDS011;5477;48.806;9.154;2022-10-16T09:48:57;3.07;;;1.50;;
10847;SDS011;5477;48.806;9.154;2022-10-16T09:51:27;3.50;;;1.37;;
10847;SDS011;5477;48.806;9.154;2022-10-16T09:53:58;4.30;;;1.40;;
10847;SDS011;5477;48.806;9.154;2022-10-16T09:56:28;2.93;;;1.30;;
10847;SDS011;5477;48.806;9.154;2022-10-16T09:59:00;4.03;;;1.20;;
10847;SDS011;5477;48.806;9.154;2022-10-16T10:01:31;3.10;;;1.63;;
10847;SDS011;5477;48.806;9.154;2022-10-16T10:04:06;3.47;;;1.57;;
10847;SDS011;5477;48.806;9.154;2022-10-16T10:06:35;3.20;;;1.93;;
10847;SDS011;5477;48.806;9.154;2022-10-16T10:09:13;2.60;;;1.63;;
10847;SDS011;5477;48.806;9.154;2022-10-16T10:11:46;8.80;;;1.60;;
10847;SDS011;5477;48.806;9.154;2022-10-16T10:14:18;2.27;;;1.60;;
10847;SDS011;5477;48.806;9.154;2022-10-16T10:16:51;7.13;;;2.57;;
10847;SDS011;5477;48.806;9.154;2022-10-16T10:19:28;2.40;;;1.40;;
10847;SDS011;5477;48.806;9.154;2022-10-16T10:21:58;2.63;;;1.60;;
10847;SDS011;5477;48.806;9.154;2022-10-16T10:24:27;3.67;;;1.50;;
10847;SDS011;5477;48.806;9.154;2022-10-16T10:26:57;4.00;;;1.80;;
10847;SDS011;5477;48.806;9.154;2022-10-16T10:29:36;2.60;;;1.80;;
10847;SDS011;5477;48.806;9.154;2022-10-16T10:32:17;5.27;;;1.60;;
10847;SDS011;5477;48.806;9.154;2022-10-16T10:34:59;2.17;;;1.60;;
10847;SDS011;5477;48.806;9.154;2022-10-16T10:37:37;5.13;;;1.70;;
10847;SDS011;5477;48.806;9.154;2022-10-16T10:40:20;3.27;;;1.67;;
10847;SDS011;5477;48.806;9.154;2022-10-16T10:42:57;4.17;;;1.70;;
10847;SDS011;5477;48.806;9.154;2022-10-16T10:45:35;4.43;;;1.47;;
10847;SDS011;5477;48.806;9.154;2022-10-16T10:48:16;1.87;;;1.63;;
10847;SDS011;5477;48.806;9.154;2022-10-16T10:50:57;3.47;;;1.47;;
10847;SDS011;5477;48.806;9.154;2022-10-16T10:53:35;2.63;;;1.40;;
10847;SDS011;5477;48.806;9.154;2022-10-16T10:56:16;4.97;;;1.63;;
10847;SDS011;5477;48.806;9.154;2022-10-16T10:59:02;2.50;;;1.60;;
10847;SDS011;5477;48.806;9.154;2022-10-16T11:01:48;4.60;;;1.60;;
10847;SDS011;5477;48.806;9.154;2022-10-16T11:07:18;2.17;;;1.50;;
10847;SDS011;5477;48.806;9.154;2022-10-16T11:09:51;2.00;;;1.50;;
10847;SDS011;5477;48.806;9.154;2022-10-16T11:12:23;4.33;;;1.30;;
10847;SDS011;5477;48.806;9.154;2022-10-16T11:14:56;1.93;;;1.67;;
10847;SDS011;5477;48.806;9.154;2022-10-16T11:17:29;2.10;;;1.43;;
10847;SDS011;5477;48.806;9.154;2022-10-16T11:20:04;2.40;;;1.50;;
10847;SDS011;5477;48.806;9.154;2022-10-16T11:22:41;4.33;;;1.43;;
10847;SDS011;5477;48.806;9.154;2022-10-16T11:25:13;2.13;;;1.50;;
10847;SDS011;5477;48.806;9.154;2022-10-16T11:27:49;2.90;;;1.53;;
10847;SDS011;5477;48.806;9.154;2022-10-16T11:30:20;2.80;;;1.30;;
10847;SDS011;5477;48.806;9.154;2022-10-16T11:33:02;2.13;;;1.27;;
10847;SDS011;5477;48.806;9.154;2022-10-16T11:35:38;4.07;;;1.40;;
10847;SDS011;5477;48.806;9.154;2022-10-16T11:38:10;3.40;;;1.43;;
10847;SDS011;5477;48.806;9.154;2022-10-16T11:40:43;6.70;;;1.80;;
10847;SDS011;5477;48.806;9.154;2022-10-16T11:43:16;4.30;;;1.70;;
10847;SDS011;5477;48.806;9.154;2022-10-16T11:45:49;4.50;;;1.40;;
10847;SDS011;5477;48.806;9.154;2022-10-16T11:48:22;1.87;;;1.40;;
10847;SDS011;5477;48.806;9.154;2022-10-16T11:50:56;4.68;;;1.80;;
10847;SDS011;5477;48.806;9.154;2022-10-16T11:53:32;3.63;;;1.92;;
10847;SDS011;5477;48.806;9.154;2022-10-16T11:56:11;4.60;;;1.40;;
10847;SDS011;5477;48.806;9.154;2022-10-16T11:58:44;3.65;;;1.10;;
10847;SDS011;5477;48.806;9.154;2022-10-16T12:01:21;2.92;;;1.13;;
10847;SDS011;5477;48.806;9.154;2022-10-16T12:03:58;3.83;;;1.13;;
10847;SDS011;5477;48.806;9.154;2022-10-16T12:06:34;3.15;;;1.27;;
10847;SDS011;5477;48.806;9.154;2022-10-16T12:09:04;5.57;;;1.40;;
10847;SDS011;5477;48.806;9.154;2022-10-16T12:11:37;2.30;;;1.08;;
10847;SDS011;5477;48.806;9.154;2022-10-16T12:14:18;6.45;;;1.52;;
10847;SDS011;5477;48.806;9.154;2022-10-16T12:16:51;4.30;;;1.40;;
10847;SDS011;5477;48.806;9.154;2022-10-16T12:19:23;2.00;;;1.25;;
10847;SDS011;5477;48.806;9.154;2022-10-16T12:21:54;3.00;;;1.30;;
10847;SDS011;5477;48.806;9.154;2022-10-16T12:24:32;2.28;;;1.30;;
10847;SDS011;5477;48.806;9.154;2022-10-16T12:27:02;3.92;;;1.30;;
10847;SDS011;5477;48.806;9.154;2022-10-16T12:29:35;1.83;;;1.10;;
10847;SDS011;5477;48.806;9.154;2022-10-16T12:32:05;2.63;;;1.20;;
10847;SDS011;5477;48.806;9.154;2022-10-16T12:35:16;4.03;;;1.25;;
10847;SDS011;5477;48.806;9.154;2022-10-16T12:37:47;3.50;;;1.40;;
10847;SDS011;5477;48.806;9.154;2022-10-16T12:40:16;3.20;;;1.30;;
10847;SDS011;5477;48.806;9.154;2022-10-16T12:42:53;6.88;;;1.20;;
10847;SDS011;5477;48.806;9.154;2022-10-16T12:45:27;1.40;;;1.10;;
10847;SDS011;5477;48.806;9.154;2022-10-16T12:47:57;3.63;;;1.25;;
10847;SDS011;5477;48.806;9.154;2022-10-16T12:50:29;3.60;;;2.72;;
10847;SDS011;5477;48.806;9.154;2022-10-16T12:52:59;4.33;;;3.80;;
10847;SDS011;5477;48.806;9.154;2022-10-16T12:55:30;8.67;;;6.43;;
10847;SDS011;5477;48.806;9.154;2022-10-16T12:58:13;3.10;;;2.00;;
10847;SDS011;5477;48.806;9.154;2022-10-16T13:00:54;2.27;;;1.40;;
10847;SDS011;5477;48.806;9.154;2022-10-16T13:03:44;2.08;;;1.10;;
10847;SDS011;5477;48.806;9.154;2022-10-16T13:06:30;2.77;;;1.67;;
10847;SDS011;5477;48.806;9.154;2022-10-16T13:09:10;2.97;;;1.37;;
10847;SDS011;5477;48.806;9.154;2022-10-16T13:11:56;2.70;;;1.30;;
10847;SDS011;5477;48.806;9.154;2022-10-16T13:14:36;3.23;;;1.60;;
10847;SDS011;5477;48.806;9.154;2022-10-16T13:17:32;1.87;;;1.20;;
10847;SDS011;5477;48.806;9.154;2022-10-16T13:20:11;2.27;;;1.57;;
10847;SDS011;5477;48.806;9.154;2022-10-16T13:22:48;5.63;;;1.80;;
10847;SDS011;5477;48.806;9.154;2022-10-16T13:25:25;2.93;;;1.60;;
10847;SDS011;5477;48.806;9.154;2022-10-16T13:28:00;4.73;;;1.67;;
10847;SDS011;5477;48.806;9.154;2022-10-16T13:30:29;2.27;;;1.73;;
10847;SDS011;5477;48.806;9.154;2022-10-16T13:33:02;2.67;;;1.60;;
10847;SDS011;5477;48.806;9.154;2022-10-16T13:35:32;2.87;;;1.73;;
10847;SDS011;5477;48.806;9.154;2022-10-16T13:38:11;3.17;;;1.50;;
10847;SDS011;5477;48.806;9.154;2022-10-16T13:40:51;2.67;;;1.83;;
10847;SDS011;5477;48.806;9.154;2022-10-16T13:43:22;2.57;;;1.60;;
10847;SDS011;5477;48.806;9.154;2022-10-16T13:45:54;2.50;;;1.50;;
10847;SDS011;5477;48.806;9.154;2022-10-16T13:48:28;1.63;;;1.30;;
10847;SDS011;5477;48.806;9.154;2022-10-16T13:51:00;2.60;;;1.30;;
10847;SDS011;5477;48.806;9.154;2022-10-16T13:53:30;3.67;;;1.50;;
10847;SDS011;5477;48.806;9.154;2022-10-16T13:56:02;4.53;;;1.50;;
10847;SDS011;5477;48.806;9.154;2022-10-16T13:58:31;1.73;;;1.30;;
10847;SDS011;5477;48.806;9.154;2022-10-16T14:01:00;3.60;;;1.20;;
10847;SDS011;5477;48.806;9.154;2022-10-16T14:03:30;2.73;;;1.30;;
10847;SDS011;5477;48.806;9.154;2022-10-16T14:06:02;2.90;;;1.60;;
10847;SDS011;5477;48.806;9.154;2022-10-16T14:08:34;2.77;;;1.50;;
10847;SDS011;5477;48.806;9.154;2022-10-16T14:11:02;3.03;;;1.40;;
10847;SDS011;5477;48.806;9.154;2022-10-16T14:13:31;2.93;;;1.40;;
10847;SDS011;5477;48.806;9.154;2022-10-16T14:16:05;2.10;;;1.73;;
10847;SDS011;5477;48.806;9.154;2022-10-16T14:18:38;3.87;;;1.63;;
10847;SDS011;5477;48.806;9.154;2022-10-16T14:21:07;4.10;;;1.40;;
10847;SDS011;5477;48.806;9.154;2022-10-16T14:23:41;4.80;;;3.20;;
10847;SDS011;5477;48.806;9.154;2022-10-16T14:26:13;5.43;;;2.73;;
10847;SDS011;5477;48.806;9.154;2022-10-16T14:28:43;6.10;;;4.93;;
10847;SDS011;5477;48.806;9.154;2022-10-16T14:36:54;3.90;;;2.80;;
10847;SDS011;5477;48.806;9.154;2022-10-16T14:39:22;7.97;;;2.70;;
10847;SDS011;5477;48.806;9.154;2022-10-16T14:41:54;3.20;;;1.90;;
10847;SDS011;5477;48.806;9.154;2022-10-16T14:44:27;6.30;;;1.90;;
10847;SDS011;5477;48.806;9.154;2022-10-16T14:46:58;2.10;;;1.80;;
10847;SDS011;5477;48.806;9.154;2022-10-16T14:49:37;4.03;;;2.17;;
10847;SDS011;5477;48.806;9.154;2022-10-16T14:52:08;5.60;;;2.00;;
10847;SDS011;5477;48.806;9.154;2022-10-16T14:54:37;7.03;;;1.77;;
10847;SDS011;5477;48.806;9.154;2022-10-16T14:57:06;4.03;;;1.80;;
10847;SDS011;5477;48.806;9.154;2022-10-16T14:59:43;2.73;;;2.07;;
10847;SDS011;5477;48.806;9.154;2022-10-16T15:02:16;4.53;;;1.70;;
10847;SDS011;5477;48.806;9.154;2022-10-16T15:04:50;4.97;;;1.80;;
10847;SDS011;5477;48.806;9.154;2022-10-16T15:07:18;8.23;;;6.10;;
10847;SDS011;5477;48.806;9.154;2022-10-16T15:09:46;3.30;;;2.73;;
10847;SDS011;5477;48.806;9.154;2022-10-16T15:12:14;4.57;;;2.10;;
10847;SDS011;5477;48.806;9.154;2022-10-16T15:14:43;2.77;;;1.97;;
10847;SDS011;5477;48.806;9.154;2022-10-16T15:17:11;3.20;;;1.90;;
10847;SDS011;5477;48.806;9.154;2022-10-16T15:19:43;5.07;;;1.80;;
10847;SDS011;5477;48.806;9.154;2022-10-16T15:22:13;4.17;;;2.20;;
10847;SDS011;5477;48.806;9.154;2022-10-16T15:24:41;3.30;;;1.90;;
10847;SDS011;5477;48.806;9.154;2022-10-16T15:27:09;3.87;;;2.30;;
10847;SDS011;5477;48.806;9.154;2022-10-16T15:29:37;4.07;;;2.20;;
10847;SDS011;5477;48.806;9.154;2022-10-16T15:32:04;3.80;;;2.60;;
10847;SDS011;5477;48.806;9.154;2022-10-16T15:34:32;3.47;;;2.20;;
10847;SDS011;5477;48.806;9.154;2022-10-16T15:37:02;4.17;;;2.10;;
10847;SDS011;5477;48.806;9.154;2022-10-16T15:39:31;3.90;;;2.63;;
10847;SDS011;5477;48.806;9.154;2022-10-16T15:42:06;5.90;;;2.43;;
10847;SDS011;5477;48.806;9.154;2022-10-16T15:44:34;3.53;;;2.63;;